Harbor Commander — WDB3861 — position and weather

sailwx.info

Track history (hours):
 
Tides and Currents Weather Stations Pressure Air Temp Water Temp Dewpoint Dewpoint Depression Visibility Wind Speed Wind Dir Waves Ship Positions

Harbor Commander

Owner: PACIFIC TUGBOAT SERVICE INC, SAN DIEGO, CA. More information available from US FCC via Universal Licensing System and Coast Guard Vessel Documentation Center.

Last reported at 2017-Sep-19 16:27 UTC. Time now 2017-Sep-19 16:44 UTC.
Position N 32°40' W 117°08'.

Type: Ship. MMSI: 366892120.

Date/timePositionNaut miles runAvg speedWind from/ knotsBaromVisibWave heightAir tempDewpointWater temp
2017-Sep-19 16:27N 32°40' W 117°08'2 3.5
2017-Sep-19 15:59N 32°38' W 117°08'0 0.0
2017-Sep-19 15:30N 32°38' W 117°08'4 3.7
2017-Sep-19 14:32N 32°42' W 117°09'  
2017-Sep-15 22:15N 32°42' W 117°09'3 1.0
2017-Sep-15 19:32N 32°40' W 117°07'0 0.0
2017-Sep-15 19:26N 32°40' W 117°07'0 0.0
2017-Sep-15 18:53N 32°40' W 117°07'0 0.0
2017-Sep-15 18:21N 32°40' W 117°07'0 0.0
2017-Sep-15 14:01N 32°40' W 117°07'2 4.6
2017-Sep-15 13:33N 32°41' W 117°09'0 4.5
2017-Sep-15 13:30N 32°42' W 117°09'0 0.0
2017-Sep-14 16:58N 32°42' W 117°09'0 0.0
2017-Sep-14 12:40N 32°42' W 117°09'0 0.0
2017-Sep-13 17:08N 32°41' W 117°09'2 7.3
2017-Sep-13 16:50N 32°40' W 117°08'2 3.4
2017-Sep-13 16:12N 32°42' W 117°09'1 0.3
2017-Sep-13 14:39N 32°42' W 117°10'0 0.6
2017-Sep-13 14:30N 32°42' W 117°10'2 3.7
2017-Sep-13 14:00N 32°43' W 117°11'1 1.2
2017-Sep-13 13:30N 32°43' W 117°11'2 0.1
2017-Sep-12 12:12N 32°42' W 117°09'0 0.0
2017-Sep-12 12:00N 32°42' W 117°09'0 0.1
2017-Sep-12 09:42N 32°41' W 117°09'0 0.4
2017-Sep-12 09:28N 32°41' W 117°09'0 0.0
2017-Sep-12 06:48N 32°41' W 117°09'0 0.0
2017-Sep-11 17:05N 32°42' W 117°09'0 1.6
2017-Sep-11 16:59N 32°42' W 117°09'0 0.2
2017-Sep-11 16:27N 32°42' W 117°09'0 0.1
2017-Sep-11 15:58N 32°42' W 117°09'0 0.3
2017-Sep-11 15:24N 32°41' W 117°09'1 1.7
2017-Sep-11 14:58N 32°41' W 117°08'0 0.0
2017-Sep-11 14:28N 32°41' W 117°08'1 1.2
2017-Sep-11 13:53N 32°41' W 117°09'  
Track history (hours):
 
Tides and Currents Weather Stations Pressure Air Temp Water Temp Dewpoint Dewpoint Depression Visibility Wind Speed Wind Dir Waves Ship Positions

Harbor Commander

Owner: PACIFIC TUGBOAT SERVICE INC, SAN DIEGO, CA. More information available from US FCC via Universal Licensing System and Coast Guard Vessel Documentation Center.

Last reported at 2017-Sep-19 16:27 UTC. Time now 2017-Sep-19 16:44 UTC.
Position N 32°40' W 117°08'.

Type: Ship. MMSI: 366892120.

Date/timePositionNaut miles runAvg speedWind from/ knotsBaromVisibWave heightAir tempDewpointWater temp
2017-Sep-19 16:27N 32°40' W 117°08'2 3.5
2017-Sep-19 15:59N 32°38' W 117°08'0 0.0
2017-Sep-19 15:30N 32°38' W 117°08'4 3.7
2017-Sep-19 14:32N 32°42' W 117°09'  
2017-Sep-15 22:15N 32°42' W 117°09'3 1.0
2017-Sep-15 19:32N 32°40' W 117°07'0 0.0
2017-Sep-15 19:26N 32°40' W 117°07'0 0.0
2017-Sep-15 18:53N 32°40' W 117°07'0 0.0
2017-Sep-15 18:21N 32°40' W 117°07'0 0.0
2017-Sep-15 14:01N 32°40' W 117°07'2 4.6
2017-Sep-15 13:33N 32°41' W 117°09'0 4.5
2017-Sep-15 13:30N 32°42' W 117°09'0 0.0
2017-Sep-14 16:58N 32°42' W 117°09'0 0.0
2017-Sep-14 12:40N 32°42' W 117°09'0 0.0
2017-Sep-13 17:08N 32°41' W 117°09'2 7.3
2017-Sep-13 16:50N 32°40' W 117°08'2 3.4
2017-Sep-13 16:12N 32°42' W 117°09'1 0.3
2017-Sep-13 14:39N 32°42' W 117°10'0 0.6
2017-Sep-13 14:30N 32°42' W 117°10'2 3.7
2017-Sep-13 14:00N 32°43' W 117°11'1 1.2
2017-Sep-13 13:30N 32°43' W 117°11'2 0.1
2017-Sep-12 12:12N 32°42' W 117°09'0 0.0
2017-Sep-12 12:00N 32°42' W 117°09'0 0.1
2017-Sep-12 09:42N 32°41' W 117°09'0 0.4
2017-Sep-12 09:28N 32°41' W 117°09'0 0.0
2017-Sep-12 06:48N 32°41' W 117°09'0 0.0
2017-Sep-11 17:05N 32°42' W 117°09'0 1.6
2017-Sep-11 16:59N 32°42' W 117°09'0 0.2
2017-Sep-11 16:27N 32°42' W 117°09'0 0.1
2017-Sep-11 15:58N 32°42' W 117°09'0 0.3
2017-Sep-11 15:24N 32°41' W 117°09'1 1.7
2017-Sep-11 14:58N 32°41' W 117°08'0 0.0
2017-Sep-11 14:28N 32°41' W 117°08'1 1.2
2017-Sep-11 13:53N 32°41' W 117°09'  

Dump ship's entire track history